createdAt,value
2019-04-01T00:08:56.239Z,912.98
2019-04-01T00:09:56.155Z,912.98
2019-04-01T00:10:56.853Z,912.97
2019-04-01T00:11:56.100Z,913.02
2019-04-01T00:12:56.062Z,913.00
2019-04-01T00:13:56.048Z,913.01
2019-04-01T00:14:56.055Z,913.05
2019-04-01T00:15:56.596Z,913.06
2019-04-01T00:16:56.097Z,913.03
2019-04-01T00:17:55.917Z,913.03
2019-04-01T00:19:02.855Z,913.07
2019-04-01T00:19:55.845Z,913.09
2019-04-01T00:20:55.950Z,913.05
2019-04-01T00:21:55.802Z,913.07
2019-04-01T00:22:55.891Z,913.07
2019-04-01T00:23:55.723Z,913.07
2019-04-01T00:24:55.913Z,913.08
2019-04-01T00:25:55.639Z,913.06
2019-04-01T00:26:55.619Z,913.08
2019-04-01T00:28:48.031Z,913.11
2019-04-01T00:28:55.565Z,913.12
2019-04-01T00:29:55.516Z,913.14
2019-04-01T00:30:55.495Z,913.13
2019-04-01T00:31:55.584Z,913.13
2019-04-01T00:32:55.426Z,913.12
2019-04-01T00:33:55.633Z,913.13
2019-04-01T00:34:55.374Z,913.14
2019-04-01T00:35:55.355Z,913.13
2019-04-01T00:36:55.309Z,913.15
2019-04-01T00:37:55.501Z,913.15
2019-04-01T00:38:55.228Z,913.16
2019-04-01T00:39:55.242Z,913.17
2019-04-01T00:40:55.141Z,913.18
2019-04-01T00:41:55.130Z,913.16
2019-04-01T00:42:55.504Z,913.18
2019-04-01T00:43:55.777Z,913.12
2019-04-01T00:44:55.847Z,913.15
2019-04-01T00:52:41.718Z,913.11
2019-04-01T00:53:41.599Z,913.07
2019-04-01T00:54:41.597Z,913.14
2019-04-01T00:55:41.557Z,913.13
2019-04-01T00:56:41.525Z,913.13
2019-04-01T00:57:41.492Z,913.13
2019-04-01T00:58:41.464Z,913.21
2019-04-01T00:59:41.473Z,913.19
2019-04-01T01:00:41.403Z,913.17
2019-04-01T01:01:41.362Z,913.18
2019-04-01T01:02:41.311Z,913.19
2019-04-01T01:03:41.287Z,913.17
2019-04-01T01:04:41.252Z,913.20
2019-04-01T01:05:41.238Z,913.17
2019-04-01T01:06:41.787Z,913.22
2019-04-01T01:07:41.162Z,913.18
2019-04-01T01:08:41.105Z,913.15
2019-04-01T01:12:40.967Z,913.16
2019-04-01T01:13:40.974Z,913.18
2019-04-01T01:14:40.929Z,913.18
2019-04-01T01:15:40.915Z,913.15
2019-04-01T01:16:40.862Z,913.19
2019-04-01T01:17:40.835Z,913.17
2019-04-01T01:18:40.786Z,913.14
2019-04-01T01:19:40.768Z,913.18
2019-04-01T01:20:40.795Z,913.12
2019-04-01T01:21:40.683Z,913.17
2019-04-01T01:22:40.686Z,913.20
2019-04-01T01:23:40.645Z,913.19
2019-04-01T01:24:40.640Z,913.21
2019-04-01T01:25:40.554Z,913.21
2019-04-01T01:26:40.772Z,913.24
2019-04-01T01:27:40.515Z,913.22
2019-04-01T01:28:40.505Z,913.27
2019-04-01T01:29:40.509Z,913.26
2019-04-01T01:30:40.648Z,913.26
2019-04-01T01:31:40.363Z,913.29
2019-04-01T01:32:40.369Z,913.28
2019-04-01T01:33:40.318Z,913.25
2019-04-01T01:34:40.285Z,913.27
2019-04-01T01:35:40.994Z,913.25
2019-04-01T01:36:40.203Z,913.25
2019-04-01T01:37:40.272Z,913.24
2019-04-01T01:38:40.337Z,913.27
2019-04-01T01:39:40.199Z,913.26
2019-04-01T01:40:40.051Z,913.30
2019-04-01T01:41:40.050Z,913.28
2019-04-01T01:42:40.012Z,913.32
2019-04-01T01:43:39.949Z,913.30
2019-04-01T01:44:39.951Z,913.30
2019-04-01T01:45:39.883Z,913.30
2019-04-01T01:46:39.882Z,913.33
2019-04-01T01:47:39.841Z,913.36
2019-04-01T01:48:39.811Z,913.41
2019-04-01T01:49:39.783Z,913.36
2019-04-01T01:50:39.734Z,913.36
2019-04-01T01:51:39.684Z,913.37
2019-04-01T01:52:39.651Z,913.37
2019-04-01T01:53:41.639Z,913.39
2019-04-01T01:54:39.606Z,913.36
2019-04-01T01:55:39.552Z,913.39
2019-04-01T01:56:40.084Z,913.36
2019-04-01T01:57:39.744Z,913.40
2019-04-01T01:58:39.488Z,913.41
2019-04-01T01:59:39.418Z,913.37
2019-04-01T02:00:39.424Z,913.37
2019-04-01T02:01:39.379Z,913.35
2019-04-01T02:02:39.357Z,913.35
2019-04-01T02:03:39.567Z,913.35
2019-04-01T02:04:39.260Z,913.34
2019-04-01T02:05:39.275Z,913.33
2019-04-01T02:06:39.197Z,913.30
2019-04-01T02:07:39.155Z,913.30
2019-04-01T02:08:39.125Z,913.29
2019-04-01T02:09:39.096Z,913.28
2019-04-01T02:10:39.148Z,913.28
2019-04-01T02:11:39.039Z,913.25
2019-04-01T02:12:40.440Z,913.26
2019-04-01T02:13:38.994Z,913.29
2019-04-01T02:14:38.922Z,913.28
2019-04-01T02:15:38.889Z,913.30
2019-04-01T02:16:38.856Z,913.26
2019-04-01T02:17:38.826Z,913.23
2019-04-01T02:18:38.828Z,913.30
2019-04-01T02:19:38.759Z,913.26
2019-04-01T02:20:38.749Z,913.25
2019-04-01T02:21:38.746Z,913.27
2019-04-01T02:22:38.680Z,913.25
2019-04-01T02:23:38.643Z,913.22
2019-04-01T02:24:38.590Z,913.22
2019-04-01T02:25:38.579Z,913.21
2019-04-01T02:26:38.557Z,913.21
2019-04-01T02:27:38.511Z,913.16
2019-04-01T02:28:38.487Z,913.14
2019-04-01T02:29:38.450Z,913.14
2019-04-01T02:30:38.858Z,913.16
2019-04-01T02:31:40.328Z,913.21
2019-04-01T02:32:38.386Z,913.21
2019-04-01T02:33:38.315Z,913.17
2019-04-01T02:34:38.264Z,913.19
2019-04-01T02:35:38.240Z,913.18
2019-04-01T02:36:38.219Z,913.22
2019-04-01T02:37:38.766Z,913.19
2019-04-01T02:38:38.126Z,913.17
2019-04-01T02:39:38.131Z,913.17
2019-04-01T02:40:38.076Z,913.18
2019-04-01T02:41:38.061Z,913.17
2019-04-01T02:42:37.994Z,913.17
2019-04-01T02:43:38.283Z,913.14
2019-04-01T02:44:38.199Z,913.09
2019-04-01T02:45:37.896Z,913.10
2019-04-01T02:46:37.856Z,913.17
2019-04-01T02:47:37.835Z,913.13
2019-04-01T02:48:37.820Z,913.16
2019-04-01T02:49:37.764Z,913.13
2019-04-01T02:50:37.728Z,913.12
2019-04-01T02:51:37.693Z,913.08
2019-04-01T02:52:37.698Z,913.12
2019-04-01T02:53:37.652Z,913.14
2019-04-01T02:54:37.614Z,913.12
2019-04-01T02:55:37.563Z,913.12
2019-04-01T02:56:37.541Z,913.13
2019-04-01T02:57:37.588Z,913.14
2019-04-01T02:58:37.458Z,913.16
2019-04-01T02:59:37.601Z,913.14
2019-04-01T03:00:37.420Z,913.14
2019-04-01T03:01:37.404Z,913.14
2019-04-01T03:02:37.351Z,913.11
2019-04-01T03:03:37.320Z,913.08
2019-04-01T03:04:37.270Z,913.09
2019-04-01T03:05:37.261Z,913.07
2019-04-01T03:06:37.215Z,913.06
2019-04-01T03:07:37.183Z,913.01
2019-04-01T03:08:37.137Z,913.02
2019-04-01T03:09:37.168Z,913.00
2019-04-01T03:10:37.090Z,913.03
2019-04-01T03:11:37.047Z,913.02
2019-04-01T03:12:37.018Z,912.98
2019-04-01T03:13:36.963Z,912.95
2019-04-01T03:14:36.950Z,912.93
2019-04-01T03:15:36.946Z,912.92
2019-04-01T03:16:36.868Z,912.91
2019-04-01T03:17:36.832Z,912.90
2019-04-01T03:18:37.280Z,912.90
2019-04-01T03:19:36.761Z,912.88
2019-04-01T03:20:36.756Z,912.91
2019-04-01T03:21:36.717Z,912.86
2019-04-01T03:22:36.712Z,912.86
2019-04-01T03:23:36.629Z,912.84
2019-04-01T03:24:36.806Z,912.82
2019-04-01T03:25:36.591Z,912.84
2019-04-01T03:26:36.682Z,912.84
2019-04-01T03:27:36.516Z,912.83
2019-04-01T03:28:36.472Z,912.86
2019-04-01T03:29:36.452Z,912.84
2019-04-01T03:30:36.423Z,912.85
2019-04-01T03:31:36.381Z,912.86
2019-04-01T03:32:43.983Z,912.81
2019-04-01T03:33:36.320Z,912.79
2019-04-01T03:34:36.292Z,912.80
2019-04-01T03:35:36.250Z,912.79
2019-04-01T03:36:36.195Z,912.83
2019-04-01T03:37:36.170Z,912.84
2019-04-01T03:38:36.144Z,912.83
2019-04-01T03:39:36.115Z,912.85
2019-04-01T03:40:36.087Z,912.84
2019-04-01T03:41:36.028Z,912.84
2019-04-01T03:42:36.010Z,912.84
2019-04-01T03:43:35.991Z,912.83
2019-04-01T03:44:35.932Z,912.80
2019-04-01T03:45:35.901Z,912.81
2019-04-01T03:46:35.861Z,912.84
2019-04-01T03:47:36.043Z,912.82
2019-04-01T03:48:35.795Z,912.87
2019-04-01T03:49:35.784Z,912.86
2019-04-01T03:50:35.772Z,912.88
2019-04-01T03:51:35.696Z,912.87
2019-04-01T03:52:35.657Z,912.79
2019-04-01T03:53:35.660Z,912.83
2019-04-01T03:54:35.587Z,912.81
2019-04-01T03:55:35.558Z,912.83
2019-04-01T03:56:35.526Z,912.81
2019-04-01T03:57:35.513Z,912.77
2019-04-01T03:58:35.770Z,912.80
2019-04-01T03:59:35.428Z,912.78
2019-04-01T04:00:35.391Z,912.76
2019-04-01T04:01:35.382Z,912.73
2019-04-01T04:02:35.330Z,912.74
2019-04-01T04:03:35.289Z,912.71
2019-04-01T04:04:35.409Z,912.68
2019-04-01T04:05:35.240Z,912.64
2019-04-01T04:06:35.217Z,912.66
2019-04-01T04:07:35.159Z,912.64
2019-04-01T04:08:35.154Z,912.63
2019-04-01T04:09:35.087Z,912.65
2019-04-01T04:10:35.053Z,912.65
2019-04-01T04:11:35.027Z,912.66
2019-04-01T04:12:35.010Z,912.64
2019-04-01T04:13:34.969Z,912.66
2019-04-01T04:14:34.931Z,912.65
2019-04-01T04:15:34.931Z,912.65
2019-04-01T04:16:34.864Z,912.64
2019-04-01T04:17:34.825Z,912.65
2019-04-01T04:18:34.797Z,912.63
2019-04-01T04:19:34.753Z,912.63
2019-04-01T04:20:34.744Z,912.63
2019-04-01T04:21:34.684Z,912.63
2019-04-01T04:22:34.691Z,912.60
2019-04-01T04:23:34.617Z,912.64
2019-04-01T04:24:34.605Z,912.63
2019-04-01T04:25:34.827Z,912.64
2019-04-01T04:26:34.520Z,912.66
2019-04-01T04:27:34.496Z,912.66
2019-04-01T04:28:34.483Z,912.67
2019-04-01T04:29:34.435Z,912.63
2019-04-01T04:30:34.401Z,912.69
2019-04-01T04:31:34.362Z,912.68
2019-04-01T04:32:34.315Z,912.69
2019-04-01T04:33:34.303Z,912.67
2019-04-01T04:34:34.258Z,912.66
2019-04-01T04:35:34.284Z,912.68
2019-04-01T04:36:34.207Z,912.64
2019-04-01T04:37:34.224Z,912.62
2019-04-01T04:38:34.216Z,912.55
2019-04-01T04:39:34.078Z,912.56
2019-04-01T04:40:34.049Z,912.55
2019-04-01T04:41:34.013Z,912.52
2019-04-01T04:42:34.012Z,912.50
2019-04-01T04:43:33.969Z,912.50
2019-04-01T04:44:33.944Z,912.48
2019-04-01T04:45:33.962Z,912.45
2019-04-01T04:46:33.882Z,912.41
2019-04-01T04:47:33.974Z,912.40
2019-04-01T04:48:33.778Z,912.38
2019-04-01T04:49:33.767Z,912.38
2019-04-01T04:50:33.751Z,912.40
2019-04-01T04:51:33.698Z,912.36
2019-04-01T04:52:33.662Z,912.36
2019-04-01T04:53:33.631Z,912.38
2019-04-01T04:54:33.574Z,912.35
2019-04-01T04:55:33.562Z,912.34
2019-04-01T04:56:33.531Z,912.39
2019-04-01T04:57:33.570Z,912.35
2019-04-01T04:58:33.443Z,912.34
2019-04-01T04:59:33.404Z,912.35
2019-04-01T05:00:33.371Z,912.33
2019-04-01T05:01:33.340Z,912.28
2019-04-01T05:02:33.301Z,912.29
2019-04-01T05:03:33.281Z,912.29
2019-04-01T05:04:33.241Z,912.24
2019-04-01T05:05:33.388Z,912.22
2019-04-01T05:06:33.171Z,912.22
2019-04-01T05:07:33.136Z,912.19
2019-04-01T05:08:33.102Z,912.20
2019-04-01T05:09:33.083Z,912.18
2019-04-01T05:10:33.034Z,912.16
2019-04-01T05:11:33.001Z,912.16
2019-04-01T05:12:32.967Z,912.14
2019-04-01T05:13:32.935Z,912.17
2019-04-01T05:14:32.905Z,912.17
2019-04-01T05:15:32.872Z,912.18
2019-04-01T05:16:33.083Z,912.19
2019-04-01T05:17:32.808Z,912.18
2019-04-01T05:18:32.774Z,912.17
2019-04-01T05:19:32.741Z,912.18
2019-04-01T05:20:32.701Z,912.16
2019-04-01T05:21:32.670Z,912.16
2019-04-01T05:22:32.639Z,912.16
2019-04-01T05:23:32.600Z,912.12
2019-04-01T05:25:32.529Z,912.08
2019-04-01T05:26:32.495Z,912.10
2019-04-01T05:27:32.463Z,912.05
2019-04-01T05:28:32.429Z,912.07
2019-04-01T05:29:32.402Z,912.03
2019-04-01T05:30:32.371Z,912.02
2019-04-01T05:31:32.331Z,911.98
2019-04-01T05:32:32.294Z,912.02
2019-04-01T05:33:32.266Z,911.96
2019-04-01T05:34:32.232Z,912.00
2019-04-01T05:35:32.189Z,911.97
2019-04-01T05:36:32.159Z,911.97
2019-04-01T05:37:32.124Z,911.92
2019-04-01T05:38:32.090Z,911.97
2019-04-01T05:39:32.057Z,911.92
2019-04-01T05:40:32.024Z,911.87
2019-04-01T05:41:32.002Z,911.88
2019-04-01T05:42:31.954Z,911.84
2019-04-01T05:43:31.925Z,911.86
2019-04-01T05:44:31.889Z,911.84
2019-04-01T05:46:31.835Z,911.87
2019-04-01T05:47:31.799Z,911.85
2019-04-01T05:48:31.752Z,911.93
2019-04-01T05:49:31.727Z,911.89
2019-04-01T05:50:31.682Z,911.89
2019-04-01T05:51:31.664Z,911.86
2019-04-01T05:52:31.625Z,911.84
2019-04-01T05:53:31.591Z,911.84
2019-04-01T05:54:31.549Z,911.83
2019-04-01T05:55:31.516Z,911.83
2019-04-01T05:56:31.739Z,911.82
2019-04-01T05:57:31.453Z,911.85
2019-04-01T05:58:31.424Z,911.84
2019-04-01T05:59:31.379Z,911.83
2019-04-01T06:00:31.347Z,911.82
2019-04-01T06:01:31.314Z,911.82
2019-04-01T06:02:31.387Z,911.77
2019-04-01T06:03:31.244Z,911.74
2019-04-01T06:04:31.216Z,911.77
2019-04-01T06:05:31.347Z,911.74
2019-04-01T06:06:31.150Z,911.72
2019-04-01T06:07:31.108Z,911.70
2019-04-01T06:08:31.084Z,911.69
2019-04-01T06:09:31.039Z,911.69
2019-04-01T06:10:31.015Z,911.64
2019-04-01T06:11:30.976Z,911.68
2019-04-01T06:12:30.945Z,911.71
2019-04-01T06:13:30.926Z,911.73
2019-04-01T06:14:30.873Z,911.72
2019-04-01T06:15:30.846Z,911.69
2019-04-01T06:16:30.802Z,911.70
2019-04-01T06:17:30.776Z,911.73
2019-04-01T06:18:30.744Z,911.70
2019-04-01T06:19:30.702Z,911.70
2019-04-01T06:20:30.678Z,911.69
2019-04-01T06:21:30.634Z,911.67
2019-04-01T06:22:30.662Z,911.66
2019-04-01T06:23:30.766Z,911.65
2019-04-01T06:24:30.554Z,911.64
2019-04-01T06:25:30.779Z,911.61
2019-04-01T06:26:30.467Z,911.61
2019-04-01T06:27:30.698Z,911.62
2019-04-01T06:28:30.400Z,911.59
2019-04-01T06:29:30.367Z,911.62
2019-04-01T06:30:30.331Z,911.57
2019-04-01T06:31:30.294Z,911.57
2019-04-01T06:32:30.262Z,911.57
2019-04-01T06:33:30.229Z,911.57
2019-04-01T06:34:30.207Z,911.54
2019-04-01T06:35:30.161Z,911.56
2019-04-01T06:36:30.238Z,911.59
2019-04-01T06:37:30.182Z,911.56
2019-04-01T06:38:30.070Z,911.56
2019-04-01T06:39:30.029Z,911.55
2019-04-01T06:40:30.001Z,911.55
2019-04-01T06:41:29.957Z,911.55
2019-04-01T06:42:29.920Z,911.53
2019-04-01T06:43:29.900Z,911.56
2019-04-01T06:44:29.861Z,911.52
2019-04-01T06:45:29.842Z,911.52
2019-04-01T06:46:29.791Z,911.47
2019-04-01T06:47:29.774Z,911.48
2019-04-01T06:48:29.741Z,911.47
2019-04-01T06:49:29.697Z,911.46
2019-04-01T06:50:29.692Z,911.42
2019-04-01T06:51:29.626Z,911.44
2019-04-01T06:52:29.587Z,911.43
2019-04-01T06:53:29.547Z,911.44
2019-04-01T06:54:29.534Z,911.48
2019-04-01T06:55:29.542Z,911.50
2019-04-01T06:56:29.468Z,911.49
2019-04-01T06:57:29.434Z,911.51
2019-04-01T06:58:29.403Z,911.52
2019-04-01T06:59:29.376Z,911.51
2019-04-01T07:00:29.311Z,911.50
2019-04-01T07:01:29.286Z,911.53
2019-04-01T07:02:29.266Z,911.55
2019-04-01T07:03:29.209Z,911.56
2019-04-01T07:04:29.202Z,911.51
2019-04-01T07:05:29.161Z,911.54
2019-04-01T07:06:29.106Z,911.53
2019-04-01T07:07:29.159Z,911.53
2019-04-01T07:08:29.038Z,911.54
2019-04-01T07:09:29.027Z,911.54
2019-04-01T07:10:28.968Z,911.52
2019-04-01T07:11:29.021Z,911.53
2019-04-01T07:12:28.924Z,911.49
2019-04-01T07:13:28.890Z,911.49
2019-04-01T07:14:28.854Z,911.45
2019-04-01T07:16:29.120Z,911.44
2019-04-01T07:17:28.754Z,911.39
2019-04-01T07:18:28.739Z,911.43
2019-04-01T07:19:28.685Z,911.40
2019-04-01T07:20:28.630Z,911.39
2019-04-01T07:21:28.662Z,911.38
2019-04-01T07:22:28.561Z,911.39
2019-04-01T07:23:28.524Z,911.40
2019-04-01T07:24:28.514Z,911.38
2019-04-01T07:25:28.464Z,911.38
2019-04-01T07:26:28.705Z,911.37
2019-04-01T07:27:28.416Z,911.35
2019-04-01T07:28:28.385Z,911.39
2019-04-01T07:29:28.321Z,911.39
2019-04-01T07:30:28.287Z,911.42
2019-04-01T07:31:28.290Z,911.43
2019-04-01T07:32:28.243Z,911.42
2019-04-01T07:33:28.206Z,911.45
2019-04-01T07:34:28.182Z,911.41
2019-04-01T07:35:28.116Z,911.42
2019-04-01T07:36:28.086Z,911.42
2019-04-01T07:37:28.054Z,911.45
2019-04-01T07:38:28.039Z,911.43
2019-04-01T07:39:28.005Z,911.42
2019-04-01T07:40:27.954Z,911.44
2019-04-01T07:41:27.932Z,911.44
2019-04-01T07:42:27.905Z,911.45
2019-04-01T07:43:27.851Z,911.46
2019-04-01T07:44:27.827Z,911.45
2019-04-01T07:45:27.775Z,911.44
2019-04-01T07:46:27.762Z,911.47
2019-04-01T07:47:27.742Z,911.46
2019-04-01T07:48:27.674Z,911.44
2019-04-01T07:49:27.661Z,911.45
2019-04-01T07:50:27.627Z,911.41
2019-04-01T07:51:27.595Z,911.42
2019-04-01T07:52:27.546Z,911.42
2019-04-01T07:53:27.629Z,911.39
2019-04-01T07:54:27.468Z,911.38
2019-04-01T07:55:27.482Z,911.39
2019-04-01T07:56:27.406Z,911.41
2019-04-01T07:57:27.366Z,911.37
2019-04-01T07:58:27.358Z,911.35
2019-04-01T07:59:27.319Z,911.34
2019-04-01T08:00:27.298Z,911.38
2019-04-01T08:01:27.252Z,911.34
2019-04-01T08:02:27.214Z,911.40
2019-04-01T08:03:27.160Z,911.43
2019-04-01T08:04:27.126Z,911.42
2019-04-01T08:05:27.112Z,911.36
2019-04-01T08:06:27.057Z,911.39
2019-04-01T08:07:27.283Z,911.36
2019-04-01T08:08:26.992Z,911.36
2019-04-01T08:09:26.981Z,911.40
2019-04-01T08:10:26.944Z,911.39
2019-04-01T08:11:26.887Z,911.40
2019-04-01T08:12:27.941Z,911.33
2019-04-01T08:13:26.817Z,911.36
2019-04-01T08:14:26.817Z,911.35
2019-04-01T08:15:26.783Z,911.33
2019-04-01T08:16:26.732Z,911.32
2019-04-01T08:17:26.714Z,911.36
2019-04-01T08:18:26.834Z,911.33
2019-04-01T08:19:26.632Z,911.37
2019-04-01T08:20:26.579Z,911.38
2019-04-01T08:21:26.553Z,911.39
2019-04-01T08:22:26.515Z,911.39
2019-04-01T08:23:26.514Z,911.42
2019-04-01T08:24:26.590Z,911.45
2019-04-01T08:25:26.405Z,911.48
2019-04-01T08:26:26.372Z,911.48
2019-04-01T08:27:26.369Z,911.51
2019-04-01T08:28:26.333Z,911.52
2019-04-01T08:29:30.331Z,911.51
2019-04-01T08:30:26.235Z,911.56
2019-04-01T08:31:26.200Z,911.52
2019-04-01T08:32:26.190Z,911.52
2019-04-01T08:33:26.154Z,911.49
2019-04-01T08:34:26.102Z,911.50
2019-04-01T08:35:26.067Z,911.47
2019-04-01T08:36:26.025Z,911.48
2019-04-01T08:37:26.009Z,911.48
2019-04-01T08:38:25.961Z,911.46
2019-04-01T08:39:26.023Z,911.48
2019-04-01T08:40:25.893Z,911.51
2019-04-01T08:41:25.857Z,911.53
2019-04-01T08:42:25.820Z,911.56
2019-04-01T08:43:25.810Z,911.60
2019-04-01T08:44:25.774Z,911.61
2019-04-01T08:45:25.770Z,911.62
2019-04-01T08:46:25.682Z,911.65
2019-04-01T08:47:25.653Z,911.64
2019-04-01T08:48:25.620Z,911.72
2019-04-01T08:49:25.618Z,911.69
2019-04-01T08:50:25.545Z,911.65
2019-04-01T08:51:25.542Z,911.65
2019-04-01T08:52:25.537Z,911.63
2019-04-01T08:53:25.472Z,911.64
2019-04-01T08:54:25.448Z,911.66
2019-04-01T08:55:25.396Z,911.71
2019-04-01T08:56:25.369Z,911.69
2019-04-01T08:57:25.326Z,911.70
2019-04-01T08:58:25.297Z,911.69
2019-04-01T08:59:25.242Z,911.71
2019-04-01T09:00:25.203Z,911.69
2019-04-01T09:01:34.980Z,911.71
2019-04-01T09:02:25.141Z,911.70
2019-04-01T09:03:25.134Z,911.74
2019-04-01T09:04:25.115Z,911.75
2019-04-01T09:05:25.029Z,911.75
2019-04-01T09:06:24.999Z,911.76
2019-04-01T09:07:24.982Z,911.77
2019-04-01T09:08:24.946Z,911.78
2019-04-01T09:09:24.914Z,911.79
2019-04-01T09:10:24.864Z,911.79
2019-04-01T09:11:24.842Z,911.78
2019-04-01T09:12:24.814Z,911.82
2019-04-01T09:13:24.759Z,911.88
2019-04-01T09:14:24.718Z,911.90
2019-04-01T09:15:24.705Z,911.93
2019-04-01T09:16:24.646Z,911.87
2019-04-01T09:17:24.630Z,911.92
2019-04-01T09:18:24.603Z,911.94
2019-04-01T09:19:24.567Z,911.92
2019-04-01T09:20:24.523Z,911.96
2019-04-01T09:21:24.486Z,911.98
2019-04-01T09:22:24.463Z,912.00
2019-04-01T09:23:24.425Z,912.01
2019-04-01T09:24:24.393Z,912.03
2019-04-01T09:25:24.346Z,912.07
2019-04-01T09:26:24.329Z,912.12
2019-04-01T09:27:24.292Z,912.15
2019-04-01T09:28:24.289Z,912.13
2019-04-01T09:29:24.220Z,912.20
2019-04-01T09:30:24.181Z,912.21
2019-04-01T09:31:24.951Z,912.24
2019-04-01T09:32:24.115Z,912.24
2019-04-01T09:33:24.067Z,912.25
2019-04-01T09:34:24.051Z,912.28
2019-04-01T09:35:23.991Z,912.24
2019-04-01T09:36:23.988Z,912.29
2019-04-01T09:38:23.889Z,912.32
2019-04-01T09:39:23.884Z,912.33
2019-04-01T09:40:23.827Z,912.35
2019-04-01T09:41:23.783Z,912.38
2019-04-01T09:42:23.768Z,912.40
2019-04-01T09:43:23.721Z,912.45
2019-04-01T09:44:36.046Z,912.42
2019-04-01T09:45:23.656Z,912.44
2019-04-01T09:46:23.636Z,912.48
2019-04-01T09:47:23.629Z,912.49
2019-04-01T09:48:23.779Z,912.51
2019-04-01T09:49:23.529Z,912.51
2019-04-01T09:50:23.527Z,912.55
2019-04-01T09:51:23.471Z,912.56
2019-04-01T09:52:23.430Z,912.58
2019-04-01T09:53:23.393Z,912.61
2019-04-01T09:54:23.347Z,912.63
2019-04-01T09:55:23.330Z,912.63
2019-04-01T09:56:23.281Z,912.64
2019-04-01T09:57:23.291Z,912.61
2019-04-01T09:58:23.212Z,912.63
2019-04-01T09:59:23.195Z,912.66
2019-04-01T10:00:23.134Z,912.68
2019-04-01T10:01:23.108Z,912.68
2019-04-01T10:02:31.840Z,912.70
2019-04-01T10:03:23.032Z,912.71
2019-04-01T10:04:23.026Z,912.74
2019-04-01T10:05:22.965Z,912.71
2019-04-01T10:06:22.932Z,912.75
2019-04-01T10:07:22.960Z,912.74
2019-04-01T10:08:22.865Z,912.81
2019-04-01T10:09:22.858Z,912.80
2019-04-01T10:10:22.795Z,912.86
2019-04-01T10:11:22.766Z,912.83
2019-04-01T10:12:22.753Z,912.84
2019-04-01T10:13:22.848Z,912.87
2019-04-01T10:14:22.692Z,912.87
2019-04-01T10:15:22.631Z,912.94
2019-04-01T10:16:22.599Z,912.95
2019-04-01T10:17:22.584Z,912.94
2019-04-01T10:18:22.535Z,913.02
2019-04-01T10:19:22.608Z,913.00
2019-04-01T10:20:22.487Z,912.98
2019-04-01T10:21:22.503Z,912.98
2019-04-01T10:22:22.446Z,912.97
2019-04-01T10:23:22.367Z,912.99
2019-04-01T10:24:22.334Z,912.98
2019-04-01T10:25:22.352Z,912.99
2019-04-01T10:26:22.291Z,912.98
2019-04-01T10:27:22.239Z,912.99
2019-04-01T10:28:22.388Z,912.99
2019-04-01T10:29:22.193Z,913.01
2019-04-01T10:30:22.138Z,913.03
2019-04-01T10:31:22.133Z,913.06
2019-04-01T10:32:22.074Z,913.04
2019-04-01T10:33:22.048Z,913.06
2019-04-01T10:34:22.030Z,913.06
2019-04-01T10:35:22.301Z,913.10
2019-04-01T10:36:21.977Z,913.06
2019-04-01T10:37:21.951Z,913.08
2019-04-01T10:38:21.887Z,913.08
2019-04-01T10:39:21.859Z,913.06
2019-04-01T10:40:21.820Z,913.13
2019-04-01T10:41:21.790Z,913.12
2019-04-01T10:42:21.779Z,913.10
2019-04-01T10:43:21.723Z,913.12
2019-04-01T10:44:21.716Z,913.15
2019-04-01T10:45:21.920Z,913.15
2019-04-01T10:46:21.637Z,913.15
2019-04-01T10:47:21.664Z,913.17
2019-04-01T10:48:21.581Z,913.21
2019-04-01T10:49:21.666Z,913.26
2019-04-01T10:50:21.563Z,913.29
2019-04-01T10:51:21.495Z,913.31
2019-04-01T10:52:21.476Z,913.30
2019-04-01T10:53:21.442Z,913.36
2019-04-01T10:54:21.475Z,913.36
2019-04-01T10:55:21.360Z,913.39
2019-04-01T10:56:21.364Z,913.42
2019-04-01T10:57:21.659Z,913.41
2019-04-01T10:58:21.351Z,913.46
2019-04-01T10:59:21.259Z,913.48
2019-04-01T11:00:21.219Z,913.45
2019-04-01T11:01:21.373Z,913.51
2019-04-01T11:02:21.196Z,913.53
2019-04-01T11:03:21.166Z,913.56
2019-04-01T11:04:21.090Z,913.58
2019-04-01T11:05:21.095Z,913.60
2019-04-01T11:06:21.347Z,913.64
2019-04-01T11:07:21.039Z,913.68
2019-04-01T11:08:21.178Z,913.72
2019-04-01T11:09:20.940Z,913.74
2019-04-01T11:10:20.904Z,913.74
2019-04-01T11:11:20.879Z,913.76
2019-04-01T11:12:20.824Z,913.81
2019-04-01T11:13:21.822Z,913.82
2019-04-01T11:14:20.790Z,913.82
2019-04-01T11:15:20.763Z,913.82
2019-04-01T11:16:20.731Z,913.82
2019-04-01T11:17:20.827Z,913.83
2019-04-01T11:18:20.677Z,913.83
2019-04-01T11:19:20.635Z,913.82
2019-04-01T11:20:20.592Z,913.82
2019-04-01T11:21:20.580Z,913.81
2019-04-01T11:22:20.527Z,913.84
2019-04-01T11:23:20.516Z,913.83
2019-04-01T11:24:20.518Z,913.82
2019-04-01T11:25:20.502Z,913.81
2019-04-01T11:26:20.406Z,913.83
2019-04-01T11:27:20.397Z,913.85
2019-04-01T11:28:20.433Z,913.86
2019-04-01T11:29:20.342Z,913.82
2019-04-01T11:30:20.339Z,913.82
2019-04-01T11:31:20.336Z,913.83
2019-04-01T11:32:20.275Z,913.86
2019-04-01T11:33:20.211Z,913.88
2019-04-01T11:34:20.529Z,913.86
2019-04-01T11:35:20.200Z,913.93
2019-04-01T11:36:20.124Z,913.98
2019-04-01T11:37:20.249Z,914.01
2019-04-01T11:38:20.079Z,914.00
2019-04-01T11:39:20.044Z,913.97
2019-04-01T11:40:20.015Z,914.02
2019-04-01T11:41:20.000Z,914.04
2019-04-01T11:42:20.029Z,914.06
2019-04-01T11:43:19.913Z,914.06
2019-04-01T11:44:19.906Z,914.08
2019-04-01T11:45:19.879Z,914.10
2019-04-01T11:46:19.938Z,914.11
2019-04-01T11:47:22.068Z,914.06
2019-04-01T11:48:19.828Z,914.07
2019-04-01T11:49:19.814Z,914.06
2019-04-01T11:50:19.796Z,914.09
2019-04-01T11:51:32.074Z,914.05
2019-04-01T11:52:19.701Z,914.08
2019-04-01T11:53:19.643Z,914.08
2019-04-01T11:54:19.614Z,914.10
2019-04-01T11:55:19.576Z,914.06
2019-04-01T11:56:19.564Z,914.07
2019-04-01T11:57:19.511Z,914.06
2019-04-01T11:58:19.538Z,914.03
2019-04-01T11:59:19.476Z,914.07
2019-04-01T12:00:19.426Z,914.01
2019-04-01T12:01:19.443Z,914.07
2019-04-01T12:02:19.368Z,914.07
2019-04-01T12:03:19.938Z,914.14
2019-04-01T12:04:19.368Z,914.22
2019-04-01T12:05:19.311Z,914.63
2019-04-01T12:06:19.300Z,915.30
2019-04-01T12:07:19.235Z,916.26
2019-04-01T12:08:19.204Z,917.14
2019-04-01T12:09:19.203Z,917.63
2019-04-01T12:10:19.149Z,917.83
2019-04-01T12:11:19.126Z,917.52
2019-04-01T12:12:23.900Z,917.30
2019-04-01T12:13:19.068Z,917.70
2019-04-01T12:14:19.088Z,918.10
2019-04-01T12:15:19.016Z,918.11
2019-04-01T12:16:19.008Z,918.28
2019-04-01T12:17:18.981Z,918.34
2019-04-01T12:18:18.931Z,918.29
2019-04-01T12:19:18.916Z,918.14
2019-04-01T12:20:18.881Z,917.62
2019-04-01T12:21:18.884Z,917.55
2019-04-01T12:22:19.928Z,917.79
2019-04-01T12:23:18.820Z,917.68
2019-04-01T12:24:18.804Z,917.59
2019-04-01T12:25:18.900Z,917.66
2019-04-01T12:26:18.723Z,917.31
2019-04-01T12:27:18.750Z,917.30
2019-04-01T12:28:18.687Z,917.25
2019-04-01T12:29:18.664Z,917.33
2019-04-01T12:30:18.628Z,917.64
2019-04-01T12:31:18.614Z,917.86
2019-04-01T12:32:18.602Z,917.88
2019-04-01T12:33:18.652Z,917.92
2019-04-01T12:34:18.509Z,917.91
2019-04-01T12:35:19.341Z,918.07
2019-04-01T12:37:18.437Z,917.73
2019-04-01T12:38:18.488Z,918.12
2019-04-01T12:39:18.383Z,918.29
2019-04-01T12:40:18.413Z,918.31
2019-04-01T12:41:19.047Z,918.20
2019-04-01T12:42:18.307Z,918.11
2019-04-01T12:43:18.331Z,918.37
2019-04-01T12:44:18.291Z,918.62
2019-04-01T12:45:18.254Z,918.57
2019-04-01T12:46:18.206Z,918.48
2019-04-01T12:47:18.203Z,918.22
2019-04-01T12:48:18.159Z,917.84
2019-04-01T12:49:18.159Z,917.54
2019-04-01T12:50:18.130Z,917.34
2019-04-01T12:51:18.091Z,917.41